createdAt,value
2018-04-24T00:01:52.660Z,66.03
2018-04-24T00:04:22.132Z,66.11
2018-04-24T00:06:50.647Z,66.11
2018-04-24T00:09:18.994Z,66.10
2018-04-24T00:11:48.149Z,66.12
2018-04-24T00:14:16.725Z,66.16
2018-04-24T00:16:45.091Z,66.23
2018-04-24T00:19:13.592Z,66.41
2018-04-24T00:21:42.359Z,66.33
2018-04-24T00:24:11.038Z,66.47
2018-04-24T00:26:39.421Z,66.36
2018-04-24T00:29:07.771Z,66.33
2018-04-24T00:31:36.152Z,66.40
2018-04-24T00:34:04.679Z,66.55
2018-04-24T00:36:33.142Z,66.71
2018-04-24T00:39:02.095Z,66.71
2018-04-24T00:41:30.519Z,66.71
2018-04-24T00:43:59.800Z,66.77
2018-04-24T00:46:28.225Z,66.96
2018-04-24T00:48:56.857Z,66.98
2018-04-24T00:51:25.472Z,67.15
2018-04-24T00:53:54.374Z,67.02
2018-04-24T00:56:23.741Z,67.04
2018-04-24T00:58:52.191Z,67.13
2018-04-24T01:01:20.951Z,67.18
2018-04-24T01:03:50.219Z,67.30
2018-04-24T01:06:18.696Z,67.10
2018-04-24T01:08:47.185Z,67.22
2018-04-24T01:11:15.570Z,67.21
2018-04-24T01:13:43.907Z,67.20
2018-04-24T01:16:12.255Z,67.21
2018-04-24T01:18:40.604Z,67.15
2018-04-24T01:21:09.112Z,67.14
2018-04-24T01:23:37.556Z,67.31
2018-04-24T01:26:06.259Z,67.31
2018-04-24T01:28:34.750Z,67.33
2018-04-24T01:31:03.151Z,67.38
2018-04-24T01:33:32.414Z,67.38
2018-04-24T01:36:00.759Z,67.33
2018-04-24T01:38:29.419Z,67.34
2018-04-24T01:40:58.238Z,67.30
2018-04-24T01:43:26.591Z,67.27
2018-04-24T01:45:55.093Z,67.33
2018-04-24T01:48:24.555Z,67.28
2018-04-24T01:50:53.596Z,67.25
2018-04-24T01:53:22.562Z,67.30
2018-04-24T01:55:51.119Z,67.30
2018-04-24T01:58:19.547Z,67.35
2018-04-24T02:00:48.129Z,67.33
2018-04-24T02:03:16.504Z,67.30
2018-04-24T02:05:44.839Z,67.34
2018-04-24T02:08:13.450Z,67.40
2018-04-24T02:10:42.207Z,67.42
2018-04-24T02:13:10.539Z,67.61
2018-04-24T02:15:38.912Z,67.60
2018-04-24T02:18:07.263Z,67.64
2018-04-24T02:20:36.018Z,67.63
2018-04-24T02:23:04.642Z,67.59
2018-04-24T02:25:33.085Z,67.61
2018-04-24T02:28:01.993Z,67.55
2018-04-24T02:30:30.811Z,67.48
2018-04-24T02:32:59.336Z,67.48
2018-04-24T02:35:27.691Z,67.61
2018-04-24T02:37:56.036Z,67.63
2018-04-24T02:40:24.973Z,67.81
2018-04-24T02:42:54.069Z,67.80
2018-04-24T02:45:22.941Z,67.99
2018-04-24T02:47:51.509Z,68.06
2018-04-24T02:50:20.536Z,68.07
2018-04-24T02:52:48.918Z,68.14
2018-04-24T02:55:17.256Z,68.09
2018-04-24T02:57:45.600Z,68.27
2018-04-24T03:00:13.948Z,68.30
2018-04-24T03:02:42.287Z,68.06
2018-04-24T03:05:11.093Z,68.05
2018-04-24T03:07:39.687Z,68.11
2018-04-24T03:10:08.202Z,68.24
2018-04-24T03:12:36.578Z,68.29
2018-04-24T03:15:05.061Z,68.35
2018-04-24T03:17:33.432Z,68.50
2018-04-24T03:20:02.347Z,68.44
2018-04-24T03:22:30.741Z,68.48
2018-04-24T03:24:59.142Z,68.67
2018-04-24T03:27:27.649Z,68.56
2018-04-24T03:29:56.139Z,68.50
2018-04-24T03:32:24.685Z,68.74
2018-04-24T03:34:53.201Z,68.70
2018-04-24T03:37:21.701Z,68.68
2018-04-24T03:39:50.095Z,68.82
2018-04-24T03:42:18.686Z,68.70
2018-04-24T03:44:47.232Z,68.87
2018-04-24T03:47:15.916Z,68.91
2018-04-24T03:49:44.348Z,68.81
2018-04-24T03:52:12.697Z,68.81
2018-04-24T03:54:41.371Z,68.83
2018-04-24T03:57:09.792Z,68.79
2018-04-24T03:59:39.079Z,68.80
2018-04-24T04:02:07.605Z,69.08
2018-04-24T04:04:36.249Z,68.81
2018-04-24T04:07:05.022Z,68.64
2018-04-24T04:09:33.741Z,68.61
2018-04-24T04:12:03.323Z,68.50
2018-04-24T04:14:33.567Z,68.58
2018-04-24T04:17:14.509Z,68.60
2018-04-24T04:19:54.923Z,68.60
2018-04-24T04:22:35.346Z,68.71
2018-04-24T04:25:04.097Z,68.61
2018-04-24T04:27:33.421Z,68.30
2018-04-24T04:30:02.047Z,68.15
2018-04-24T04:32:30.492Z,68.12
2018-04-24T04:34:59.421Z,68.09
2018-04-24T04:37:27.920Z,68.02
2018-04-24T04:39:56.292Z,68.11
2018-04-24T04:42:24.915Z,68.09
2018-04-24T04:44:53.664Z,68.13
2018-04-24T04:47:22.428Z,67.99
2018-04-24T04:49:51.243Z,67.97
2018-04-24T04:52:19.981Z,67.99
2018-04-24T04:54:48.659Z,67.92
2018-04-24T04:57:17.687Z,67.87
2018-04-24T04:59:46.108Z,67.82
2018-04-24T05:02:14.694Z,67.81
2018-04-24T05:04:43.044Z,67.78
2018-04-24T05:07:11.403Z,67.73
2018-04-24T05:09:39.934Z,67.69
2018-04-24T05:12:08.303Z,67.66
2018-04-24T05:14:37.794Z,67.65
2018-04-24T05:17:06.223Z,67.70
2018-04-24T05:19:34.628Z,67.68
2018-04-24T05:22:03.064Z,67.57
2018-04-24T05:24:31.491Z,67.53
2018-04-24T05:27:00.144Z,67.52
2018-04-24T05:29:28.516Z,67.47
2018-04-24T05:31:56.992Z,67.43
2018-04-24T05:34:25.412Z,67.40
2018-04-24T05:36:54.363Z,67.35
2018-04-24T05:39:22.712Z,67.25
2018-04-24T05:41:51.543Z,67.26
2018-04-24T05:44:20.391Z,67.13
2018-04-24T05:46:50.380Z,66.94
2018-04-24T05:49:18.800Z,66.88
2018-04-24T05:51:47.144Z,66.77
2018-04-24T05:54:15.502Z,66.71
2018-04-24T05:56:44.484Z,66.72
2018-04-24T05:59:13.465Z,66.58
2018-04-24T06:01:41.821Z,66.54
2018-04-24T06:04:11.274Z,66.32
2018-04-24T06:06:39.950Z,66.23
2018-04-24T06:09:08.803Z,66.31
2018-04-24T06:11:37.936Z,66.25
2018-04-24T06:14:06.379Z,66.20
2018-04-24T06:16:34.912Z,66.18
2018-04-24T06:19:03.425Z,66.15
2018-04-24T06:21:31.877Z,66.04
2018-04-24T06:24:00.455Z,66.02
2018-04-24T06:26:28.877Z,65.89
2018-04-24T06:28:58.529Z,65.84
2018-04-24T06:31:26.893Z,65.58
2018-04-24T06:33:56.260Z,65.39
2018-04-24T06:36:24.683Z,65.17
2018-04-24T06:38:53.376Z,64.97
2018-04-24T06:41:22.038Z,64.70
2018-04-24T06:43:51.799Z,64.19
2018-04-24T06:46:20.145Z,63.90
2018-04-24T06:48:48.824Z,64.07
2018-04-24T06:51:18.149Z,64.02
2018-04-24T06:53:47.000Z,63.98
2018-04-24T06:56:15.361Z,63.80
2018-04-24T06:58:44.735Z,63.44
2018-04-24T07:01:13.201Z,63.02
2018-04-24T07:03:42.291Z,62.93
2018-04-24T07:06:11.333Z,62.72
2018-04-24T07:08:39.787Z,62.59
2018-04-24T07:11:08.875Z,62.47
2018-04-24T07:13:37.533Z,62.33
2018-04-24T07:16:06.851Z,62.48
2018-04-24T07:18:36.082Z,62.31
2018-04-24T07:21:04.432Z,62.31
2018-04-24T07:23:33.515Z,62.06
2018-04-24T07:26:01.955Z,61.88
2018-04-24T07:28:30.850Z,61.43
2018-04-24T07:30:59.671Z,61.37
2018-04-24T07:33:28.149Z,60.81
2018-04-24T07:35:56.631Z,60.91
2018-04-24T07:38:25.221Z,61.08
2018-04-24T07:40:54.449Z,61.10
2018-04-24T07:43:22.855Z,61.24
2018-04-24T07:45:51.267Z,60.36
2018-04-24T07:48:19.908Z,60.73
2018-04-24T07:50:48.316Z,60.54
2018-04-24T07:53:16.769Z,59.90
2018-04-24T07:55:45.799Z,60.36
2018-04-24T07:58:14.191Z,60.31
2018-04-24T08:00:42.628Z,60.50
2018-04-24T08:03:11.313Z,60.21
2018-04-24T08:05:39.668Z,60.07
2018-04-24T08:08:08.060Z,59.51
2018-04-24T08:10:36.453Z,59.06
2018-04-24T08:13:04.802Z,59.24
2018-04-24T08:15:33.185Z,58.64
2018-04-24T08:18:01.637Z,58.56
2018-04-24T08:20:30.012Z,58.46
2018-04-24T08:22:58.410Z,58.42
2018-04-24T08:25:26.890Z,58.26
2018-04-24T08:27:55.236Z,58.35
2018-04-24T08:30:24.952Z,58.13
2018-04-24T08:32:54.415Z,57.99
2018-04-24T08:35:23.185Z,57.23
2018-04-24T08:37:52.066Z,57.45
2018-04-24T08:40:20.469Z,57.50
2018-04-24T08:42:48.845Z,57.34
2018-04-24T08:45:17.585Z,57.13
2018-04-24T08:47:47.996Z,57.35
2018-04-24T08:50:16.966Z,57.31
2018-04-24T08:52:45.343Z,57.24
2018-04-24T08:55:13.766Z,56.91
2018-04-24T08:57:42.095Z,56.82
2018-04-24T09:00:10.450Z,56.77
2018-04-24T09:02:39.055Z,56.75
2018-04-24T09:05:07.413Z,56.26
2018-04-24T09:07:35.752Z,56.18
2018-04-24T09:10:04.119Z,56.32
2018-04-24T09:12:32.474Z,56.14
2018-04-24T09:15:01.109Z,55.95
2018-04-24T09:17:30.189Z,55.93
2018-04-24T09:19:58.749Z,55.82
2018-04-24T09:22:27.712Z,54.70
2018-04-24T09:24:56.118Z,54.83
2018-04-24T09:27:24.788Z,55.01
2018-04-24T09:29:58.857Z,54.90
2018-04-24T09:32:27.449Z,54.92
2018-04-24T09:34:56.495Z,53.72
2018-04-24T09:37:24.855Z,53.40
2018-04-24T09:39:53.546Z,53.68
2018-04-24T09:42:22.525Z,53.31
2018-04-24T09:44:50.990Z,52.67
2018-04-24T09:47:19.433Z,52.63
2018-04-24T09:49:48.675Z,51.96
2018-04-24T09:52:17.087Z,51.65
2018-04-24T09:54:45.435Z,51.84
2018-04-24T09:57:13.813Z,51.73
2018-04-24T09:59:42.241Z,50.98
2018-04-24T10:02:11.179Z,50.76
2018-04-24T10:04:39.488Z,50.86
2018-04-24T10:07:08.299Z,50.92
2018-04-24T10:09:36.974Z,50.68
2018-04-24T10:12:06.371Z,50.75
2018-04-24T10:14:34.813Z,50.13
2018-04-24T10:17:03.604Z,49.81
2018-04-24T10:19:33.078Z,49.26
2018-04-24T10:22:02.304Z,48.99
2018-04-24T10:24:30.712Z,49.05
2018-04-24T10:26:59.430Z,49.08
2018-04-24T10:29:27.817Z,49.13
2018-04-24T10:31:56.578Z,49.05
2018-04-24T10:34:25.309Z,49.05
2018-04-24T10:36:53.927Z,47.93
2018-04-24T10:39:22.283Z,48.14
2018-04-24T10:41:50.640Z,48.16
2018-04-24T10:44:20.487Z,48.11
2018-04-24T10:46:48.849Z,48.15
2018-04-24T10:49:18.368Z,48.11
2018-04-24T10:51:46.808Z,47.47
2018-04-24T10:54:15.962Z,46.64
2018-04-24T10:56:44.370Z,46.58
2018-04-24T10:59:13.208Z,46.32
2018-04-24T11:01:41.568Z,45.90
2018-04-24T11:04:11.171Z,45.77
2018-04-24T11:06:40.503Z,46.13
2018-04-24T11:09:09.101Z,46.55
2018-04-24T11:11:37.463Z,46.49
2018-04-24T11:14:06.145Z,46.11
2018-04-24T11:16:34.962Z,43.99
2018-04-24T11:19:03.579Z,43.69
2018-04-24T11:21:32.097Z,44.24
2018-04-24T11:24:00.452Z,44.17
2018-04-24T11:26:29.122Z,43.80
2018-04-24T11:28:57.485Z,43.80
2018-04-24T11:31:25.835Z,43.70
2018-04-24T11:33:54.190Z,43.59
2018-04-24T11:36:22.970Z,43.41
2018-04-24T11:38:51.441Z,43.52
2018-04-24T11:41:20.140Z,43.28
2018-04-24T11:43:49.225Z,43.18
2018-04-24T11:46:17.551Z,42.27
2018-04-24T11:48:45.943Z,42.44
2018-04-24T11:51:14.920Z,42.83
2018-04-24T11:53:43.380Z,42.56
2018-04-24T11:56:12.004Z,42.25
2018-04-24T11:58:40.354Z,42.60
2018-04-24T12:01:09.427Z,42.21
2018-04-24T12:03:38.513Z,42.48
2018-04-24T12:06:07.321Z,42.50
2018-04-24T12:08:36.065Z,42.68
2018-04-24T12:11:04.721Z,42.89
2018-04-24T12:13:34.610Z,42.89
2018-04-24T12:16:03.293Z,42.85
2018-04-24T12:18:31.793Z,42.58
2018-04-24T12:21:00.218Z,42.31
2018-04-24T12:23:29.000Z,42.50
2018-04-24T12:25:58.423Z,42.48
2018-04-24T12:28:26.794Z,42.55
2018-04-24T12:30:55.526Z,42.23
2018-04-24T12:33:24.507Z,42.48
2018-04-24T12:35:53.260Z,42.36
2018-04-24T12:38:21.838Z,42.68
2018-04-24T12:40:50.341Z,42.78
2018-04-24T12:43:26.825Z,42.76
2018-04-24T12:45:56.060Z,42.60
2018-04-24T12:48:24.412Z,42.68
2018-04-24T12:50:52.905Z,42.79
2018-04-24T12:53:21.298Z,42.62
2018-04-24T12:55:49.912Z,42.56
2018-04-24T12:58:18.365Z,42.70
2018-04-24T13:00:48.479Z,42.69
2018-04-24T13:03:17.202Z,42.89
2018-04-24T13:05:45.957Z,43.07
2018-04-24T13:08:14.766Z,43.28
2018-04-24T13:10:43.221Z,43.38
2018-04-24T13:13:11.693Z,43.63
2018-04-24T13:15:40.122Z,43.84
2018-04-24T13:18:08.648Z,44.13
2018-04-24T13:20:37.589Z,44.31
2018-04-24T13:23:06.032Z,44.45
2018-04-24T13:25:34.445Z,44.59
2018-04-24T13:28:02.847Z,44.72
2018-04-24T13:30:31.967Z,44.76
2018-04-24T13:33:00.739Z,44.93
2018-04-24T13:35:29.494Z,45.07
2018-04-24T13:37:57.894Z,45.15
2018-04-24T13:40:26.262Z,45.23
2018-04-24T13:42:55.086Z,45.29
2018-04-24T13:45:23.521Z,45.44
2018-04-24T13:47:51.884Z,45.38
2018-04-24T13:50:20.288Z,45.39
2018-04-24T13:52:48.645Z,45.42
2018-04-24T13:55:17.253Z,45.60
2018-04-24T13:57:46.046Z,45.75
2018-04-24T14:00:14.407Z,45.81
2018-04-24T14:02:43.036Z,45.88
2018-04-24T14:05:11.399Z,45.97
2018-04-24T14:07:39.848Z,46.04
2018-04-24T14:10:08.252Z,46.18
2018-04-24T14:12:36.645Z,46.38
2018-04-24T14:15:05.429Z,46.92
2018-04-24T14:17:33.799Z,47.44
2018-04-24T14:20:02.182Z,48.01
2018-04-24T14:22:30.549Z,48.35
2018-04-24T14:24:58.902Z,48.57
2018-04-24T14:27:27.292Z,49.23
2018-04-24T14:29:55.680Z,49.76
2018-04-24T14:32:24.411Z,49.58
2018-04-24T14:34:52.923Z,49.48
2018-04-24T14:37:21.365Z,49.30
2018-04-24T14:39:49.727Z,49.21
2018-04-24T14:42:23.119Z,49.17
2018-04-24T14:44:54.891Z,49.04
2018-04-24T14:47:23.546Z,48.96
2018-04-24T14:49:52.943Z,49.12
2018-04-24T14:52:21.677Z,48.93
2018-04-24T14:54:50.696Z,49.23
2018-04-24T14:57:19.152Z,49.30
2018-04-24T14:59:47.511Z,49.37
2018-04-24T15:02:17.074Z,49.14
2018-04-24T15:04:45.567Z,49.11
2018-04-24T15:07:14.073Z,49.15
2018-04-24T15:09:44.924Z,49.32
2018-04-24T15:12:13.459Z,49.57
2018-04-24T15:14:41.957Z,49.75
2018-04-24T15:17:10.718Z,49.92
2018-04-24T15:19:39.223Z,50.06
2018-04-24T15:22:07.670Z,50.17
2018-04-24T15:24:36.029Z,50.34
2018-04-24T15:27:04.674Z,50.50
2018-04-24T15:29:33.366Z,50.46
2018-04-24T15:32:01.945Z,50.68
2018-04-24T15:34:35.414Z,50.74
2018-04-24T15:37:05.783Z,50.81
2018-04-24T15:39:34.166Z,50.91
2018-04-24T15:42:02.528Z,51.15
2018-04-24T15:44:30.903Z,51.74
2018-04-24T15:46:59.462Z,51.52
2018-04-24T15:49:27.915Z,51.62
2018-04-24T15:51:56.255Z,51.70
2018-04-24T15:54:24.692Z,51.71
2018-04-24T15:56:53.053Z,51.98
2018-04-24T15:59:21.877Z,51.93
2018-04-24T16:01:50.231Z,51.90
2018-04-24T16:04:18.950Z,51.60
2018-04-24T16:06:47.346Z,51.24
2018-04-24T16:09:15.711Z,51.28
2018-04-24T16:11:44.777Z,51.27
2018-04-24T16:14:13.424Z,51.32
2018-04-24T16:16:41.809Z,51.68
2018-04-24T16:19:10.193Z,51.78
2018-04-24T16:21:38.631Z,51.42
2018-04-24T16:24:07.037Z,51.49
2018-04-24T16:26:35.387Z,51.69
2018-04-24T16:29:03.794Z,51.91
2018-04-24T16:31:32.487Z,52.10
2018-04-24T16:34:01.190Z,52.26
2018-04-24T16:36:29.851Z,52.26
2018-04-24T16:38:58.218Z,52.39
2018-04-24T16:41:26.724Z,52.43
2018-04-24T16:43:55.151Z,52.40
2018-04-24T16:46:24.078Z,52.22
2018-04-24T16:48:53.634Z,52.04
2018-04-24T16:51:22.375Z,51.92
2018-04-24T16:53:50.745Z,51.72
2018-04-24T16:56:19.103Z,51.73
2018-04-24T16:58:47.472Z,51.78
2018-04-24T17:01:15.815Z,51.75
2018-04-24T17:03:44.583Z,51.83
2018-04-24T17:06:13.282Z,51.92
2018-04-24T17:08:41.666Z,52.01
2018-04-24T17:11:10.033Z,52.13
2018-04-24T17:13:38.819Z,52.19
2018-04-24T17:16:07.507Z,52.29
2018-04-24T17:18:36.448Z,52.45
2018-04-24T17:21:07.501Z,52.52
2018-04-24T17:23:35.927Z,52.49
2018-04-24T17:26:04.287Z,52.42
2018-04-24T17:28:32.972Z,52.37
2018-04-24T17:31:01.359Z,52.28
2018-04-24T17:33:29.754Z,52.29
2018-04-24T17:35:58.161Z,52.34
2018-04-24T17:38:26.851Z,52.29
2018-04-24T17:40:55.223Z,52.31
2018-04-24T17:43:24.896Z,52.57
2018-04-24T17:45:53.270Z,52.75
2018-04-24T17:48:21.732Z,52.70
2018-04-24T17:50:50.243Z,52.87
2018-04-24T17:53:18.613Z,52.99
2018-04-24T17:55:47.001Z,52.96
2018-04-24T17:58:15.360Z,54.00
2018-04-24T18:00:44.056Z,53.78
2018-04-24T18:03:12.709Z,53.68
2018-04-24T18:05:41.161Z,53.40
2018-04-24T18:08:09.554Z,53.22
2018-04-24T18:10:38.134Z,53.43
2018-04-24T18:13:07.221Z,53.51
2018-04-24T18:15:35.584Z,54.00
2018-04-24T18:18:03.944Z,54.03
2018-04-24T18:20:34.455Z,54.19
2018-04-24T18:23:04.130Z,54.69
2018-04-24T18:25:34.160Z,54.57
2018-04-24T18:28:05.245Z,55.27
2018-04-24T18:30:34.305Z,54.72
2018-04-24T18:33:02.669Z,55.17
2018-04-24T18:35:31.063Z,54.97
2018-04-24T18:37:59.757Z,55.58
2018-04-24T18:40:28.156Z,55.02
2018-04-24T18:42:56.524Z,54.88
2018-04-24T18:45:24.914Z,54.60
2018-04-24T18:47:54.440Z,54.75
2018-04-24T18:50:22.826Z,54.78
2018-04-24T18:55:50.872Z,54.86
2018-04-24T18:58:19.302Z,54.73
2018-04-24T19:00:47.661Z,54.62
2018-04-24T19:03:16.133Z,54.61
2018-04-24T19:05:44.825Z,54.55
2018-04-24T19:08:13.760Z,54.47
2018-04-24T19:10:42.804Z,54.46
2018-04-24T19:13:11.218Z,54.54
2018-04-24T19:15:39.751Z,54.56
2018-04-24T19:18:08.464Z,54.56
2018-04-24T19:20:37.798Z,54.51
2018-04-24T19:23:06.349Z,54.47
2018-04-24T19:25:40.486Z,54.39
2018-04-24T19:28:08.913Z,54.24
2018-04-24T19:30:37.321Z,54.28
2018-04-24T19:33:05.730Z,54.28
2018-04-24T19:35:34.209Z,54.19
2018-04-24T19:38:05.945Z,54.07
2018-04-24T19:43:41.084Z,53.95
2018-04-24T19:46:10.844Z,53.89
2018-04-24T19:48:52.210Z,53.95
2018-04-24T19:51:20.630Z,53.84
2018-04-24T19:53:49.210Z,53.82
2018-04-24T19:56:18.775Z,53.87
2018-04-24T19:58:47.214Z,53.96
2018-04-24T20:01:15.564Z,54.00
2018-04-24T20:03:44.614Z,53.96
2018-04-24T20:06:13.835Z,53.95
2018-04-24T20:08:54.384Z,53.92
2018-04-24T20:11:23.510Z,53.91
2018-04-24T20:13:51.976Z,53.92
2018-04-24T20:16:20.671Z,53.93
2018-04-24T20:18:49.092Z,54.06
2018-04-24T20:21:18.039Z,54.12
2018-04-24T20:23:47.068Z,54.13
2018-04-24T20:26:15.436Z,54.25
2018-04-24T20:28:43.866Z,54.20
2018-04-24T20:31:12.411Z,54.33
2018-04-24T20:33:40.783Z,54.21
2018-04-24T20:36:09.145Z,54.23
2018-04-24T20:38:37.561Z,54.28
2018-04-24T20:41:06.005Z,54.33
2018-04-24T20:43:34.423Z,54.36
2018-04-24T20:46:02.792Z,54.47
2018-04-24T20:48:31.144Z,54.39
2018-04-24T20:50:59.576Z,54.43
2018-04-24T20:53:28.221Z,54.50
2018-04-24T20:55:56.992Z,54.57
2018-04-24T20:58:25.371Z,54.55
2018-04-24T21:00:53.878Z,54.62
2018-04-24T21:03:22.253Z,54.63
2018-04-24T21:05:50.949Z,54.69
2018-04-24T21:08:19.385Z,54.71
2018-04-24T21:10:48.019Z,54.75
2018-04-24T21:13:16.611Z,54.83
2018-04-24T21:15:49.008Z,54.87
2018-04-24T21:18:18.528Z,54.98
2018-04-24T21:20:46.908Z,55.00
2018-04-24T21:23:15.268Z,55.01
2018-04-24T21:25:43.713Z,55.24
2018-04-24T21:28:12.240Z,55.17
2018-04-24T21:30:41.238Z,55.21
2018-04-24T21:33:18.330Z,55.36
2018-04-24T21:35:46.757Z,55.32
2018-04-24T21:38:15.241Z,55.25
2018-04-24T21:43:22.964Z,55.30
2018-04-24T21:45:53.984Z,55.32
2018-04-24T21:48:22.773Z,55.36
2018-04-24T21:50:55.482Z,55.40
2018-04-24T21:53:23.840Z,55.46
2018-04-24T21:55:59.034Z,55.40
2018-04-24T21:58:27.577Z,55.47
2018-04-24T22:00:55.990Z,55.50
2018-04-24T22:03:24.375Z,55.43
2018-04-24T22:05:55.733Z,55.52
2018-04-24T22:08:24.520Z,55.59
2018-04-24T22:10:58.551Z,55.65
2018-04-24T22:13:33.837Z,55.70
2018-04-24T22:16:02.365Z,55.66
2018-04-24T22:18:30.838Z,55.82
2018-04-24T22:21:00.335Z,55.89
2018-04-24T22:23:28.852Z,56.07
2018-04-24T22:25:57.277Z,56.14
2018-04-24T22:28:26.878Z,56.16
2018-04-24T22:30:55.339Z,56.18
2018-04-24T22:33:23.736Z,56.45
2018-04-24T22:35:52.254Z,56.49
2018-04-24T22:38:20.652Z,56.55
2018-04-24T22:40:48.996Z,56.77
2018-04-24T22:43:18.630Z,56.72
2018-04-24T22:45:46.999Z,56.84
2018-04-24T22:48:16.631Z,56.95
2018-04-24T22:50:45.365Z,57.44
2018-04-24T22:53:14.184Z,57.43
2018-04-24T22:55:42.960Z,57.43
2018-04-24T22:58:11.629Z,57.91
2018-04-24T23:00:40.188Z,57.74
2018-04-24T23:03:10.615Z,58.16
2018-04-24T23:05:38.976Z,58.13
2018-04-24T23:08:07.331Z,58.84
2018-04-24T23:10:48.110Z,58.63
2018-04-24T23:13:29.323Z,58.79
2018-04-24T23:16:09.600Z,58.79
2018-04-24T23:18:51.865Z,59.05
2018-04-24T23:21:20.538Z,59.07
2018-04-24T23:23:48.959Z,59.74
2018-04-24T23:26:17.588Z,59.44
2018-04-24T23:28:48.179Z,59.45
2018-04-24T23:31:17.270Z,59.60
2018-04-24T23:33:46.337Z,59.88
2018-04-24T23:36:15.330Z,60.10
2018-04-24T23:38:43.819Z,60.08
2018-04-24T23:41:13.361Z,60.11
2018-04-24T23:43:42.217Z,60.22
2018-04-24T23:46:12.652Z,60.30
2018-04-24T23:48:41.495Z,60.61
2018-04-24T23:51:09.953Z,60.54
2018-04-24T23:53:38.962Z,60.68
2018-04-24T23:56:07.540Z,61.06
2018-04-24T23:58:36.737Z,61.08
